createdAt,value
2019-05-16T00:00:58.761Z,59.50
2019-05-16T00:03:28.984Z,59.70
2019-05-16T00:06:00.922Z,59.30
2019-05-16T00:08:31.659Z,59.92
2019-05-16T00:11:02.532Z,59.97
2019-05-16T00:13:33.147Z,59.61
2019-05-16T00:16:04.087Z,59.63
2019-05-16T00:18:34.639Z,59.59
2019-05-16T00:21:05.255Z,59.29
2019-05-16T00:23:37.851Z,59.18
2019-05-16T00:26:08.412Z,58.36
2019-05-16T00:28:39.255Z,58.78
2019-05-16T00:31:10.156Z,58.35
2019-05-16T00:33:41.052Z,58.70
2019-05-16T00:36:11.619Z,59.21
2019-05-16T00:38:42.219Z,59.50
2019-05-16T00:41:12.896Z,59.58
2019-05-16T00:43:43.496Z,59.49
2019-05-16T00:46:15.321Z,58.99
2019-05-16T00:48:48.572Z,59.49
2019-05-16T00:51:19.097Z,59.90
2019-05-16T00:53:49.931Z,60.38
2019-05-16T00:56:21.480Z,61.00
2019-05-16T00:58:52.485Z,61.02
2019-05-16T01:01:24.284Z,61.21
2019-05-16T01:03:54.885Z,60.18
2019-05-16T01:06:25.559Z,59.88
2019-05-16T01:08:57.997Z,59.78
2019-05-16T01:11:28.998Z,60.06
2019-05-16T01:14:00.478Z,59.79
2019-05-16T01:16:31.248Z,59.95
2019-05-16T01:19:03.045Z,59.80
2019-05-16T01:21:33.944Z,59.15
2019-05-16T01:24:04.943Z,59.46
2019-05-16T01:26:36.000Z,59.08
2019-05-16T01:29:08.543Z,59.18
2019-05-16T01:31:39.452Z,58.91
2019-05-16T01:34:10.251Z,59.63
2019-05-16T01:36:41.788Z,58.70
2019-05-16T01:39:12.664Z,58.89
2019-05-16T01:41:43.563Z,59.46
2019-05-16T01:44:14.337Z,59.32
2019-05-16T01:46:45.270Z,59.54
2019-05-16T01:49:16.013Z,59.51
2019-05-16T01:51:48.439Z,59.35
2019-05-16T01:54:19.375Z,58.97
2019-05-16T01:56:51.179Z,58.37
2019-05-16T01:59:22.061Z,58.97
2019-05-16T02:01:52.852Z,59.21
2019-05-16T02:04:23.748Z,58.73
2019-05-16T02:06:55.340Z,58.60
2019-05-16T02:09:28.079Z,59.19
2019-05-16T02:11:59.009Z,59.51
2019-05-16T02:14:29.900Z,59.13
2019-05-16T02:17:00.759Z,59.56
2019-05-16T02:19:31.435Z,59.52
2019-05-16T02:22:02.340Z,59.02
2019-05-16T02:24:33.143Z,59.58
2019-05-16T02:27:04.131Z,59.04
2019-05-16T02:29:34.884Z,59.67
2019-05-16T02:32:05.656Z,59.76
2019-05-16T02:34:36.259Z,59.36
2019-05-16T02:37:23.649Z,59.47
2019-05-16T02:39:40.941Z,59.50
2019-05-16T02:42:12.370Z,59.57
2019-05-16T02:44:43.346Z,59.89
2019-05-16T02:47:15.241Z,58.99
2019-05-16T02:49:46.008Z,60.07
2019-05-16T02:52:16.856Z,59.82
2019-05-16T02:54:47.700Z,59.84
2019-05-16T02:57:21.177Z,60.01
2019-05-16T02:59:51.257Z,60.04
2019-05-16T03:02:22.183Z,60.35
2019-05-16T03:04:53.215Z,60.33
2019-05-16T03:07:37.720Z,59.88
2019-05-16T03:10:01.110Z,60.17
2019-05-16T03:12:32.969Z,60.67
2019-05-16T03:15:04.737Z,60.23
2019-05-16T03:17:36.078Z,60.01
2019-05-16T03:20:10.531Z,60.05
2019-05-16T03:22:41.223Z,60.65
2019-05-16T03:25:13.083Z,60.76
2019-05-16T03:27:43.760Z,61.17
2019-05-16T03:30:16.629Z,61.66
2019-05-16T03:32:47.148Z,62.23
2019-05-16T03:35:23.965Z,62.07
2019-05-16T03:37:56.949Z,62.40
2019-05-16T03:40:31.100Z,62.23
2019-05-16T03:43:01.458Z,62.91
2019-05-16T03:45:32.676Z,62.66
2019-05-16T03:48:03.674Z,63.08
2019-05-16T03:50:34.709Z,62.92
2019-05-16T03:53:05.487Z,63.06
2019-05-16T03:55:36.236Z,63.11
2019-05-16T03:58:07.128Z,63.41
2019-05-16T04:00:53.677Z,63.34
2019-05-16T04:03:28.455Z,63.04
2019-05-16T04:06:00.832Z,62.58
2019-05-16T04:08:31.016Z,61.87
2019-05-16T04:11:02.137Z,61.52
2019-05-16T04:13:33.247Z,61.49
2019-05-16T04:16:04.110Z,61.51
2019-05-16T04:18:34.600Z,62.34
2019-05-16T04:21:05.105Z,62.17
2019-05-16T04:23:35.575Z,62.19
2019-05-16T04:26:06.140Z,61.77
2019-05-16T04:28:40.990Z,61.66
2019-05-16T04:31:10.977Z,61.50
2019-05-16T04:33:42.040Z,62.14
2019-05-16T04:36:13.587Z,62.15
2019-05-16T04:38:46.656Z,62.48
2019-05-16T04:41:16.626Z,62.41
2019-05-16T04:43:50.270Z,64.24
2019-05-16T04:46:21.337Z,63.74
2019-05-16T04:48:52.116Z,63.38
2019-05-16T04:51:22.885Z,63.31
2019-05-16T04:53:53.687Z,64.23
2019-05-16T04:56:24.597Z,63.92
2019-05-16T04:58:55.412Z,62.59
2019-05-16T05:01:26.299Z,61.68
2019-05-16T05:04:06.626Z,62.36
2019-05-16T05:06:31.315Z,61.51
2019-05-16T05:09:03.450Z,61.34
2019-05-16T05:11:34.732Z,60.97
2019-05-16T05:14:05.811Z,60.93
2019-05-16T05:16:36.530Z,61.65
2019-05-16T05:19:07.280Z,61.57
2019-05-16T05:21:40.684Z,62.53
2019-05-16T05:24:11.044Z,62.42
2019-05-16T05:26:41.982Z,61.98
2019-05-16T05:29:12.774Z,61.49
2019-05-16T05:31:45.070Z,60.38
2019-05-16T05:34:16.124Z,60.57
2019-05-16T05:36:47.003Z,60.03
2019-05-16T05:39:19.884Z,59.10
2019-05-16T05:41:50.566Z,58.33
2019-05-16T05:44:21.509Z,58.53
2019-05-16T05:46:52.559Z,57.99
2019-05-16T05:49:23.387Z,58.57
2019-05-16T05:51:54.227Z,57.50
2019-05-16T05:54:25.159Z,56.93
2019-05-16T05:56:56.097Z,56.41
2019-05-16T05:59:26.941Z,56.31
2019-05-16T06:02:00.579Z,55.98
2019-05-16T06:04:30.634Z,56.67
2019-05-16T06:07:01.531Z,55.94
2019-05-16T06:09:33.277Z,55.50
2019-05-16T06:12:07.395Z,55.41
2019-05-16T06:14:36.761Z,56.21
2019-05-16T06:17:07.471Z,57.19
2019-05-16T06:19:40.253Z,56.87
2019-05-16T06:22:10.935Z,56.88
2019-05-16T06:24:41.755Z,56.00
2019-05-16T06:27:12.486Z,56.65
2019-05-16T06:29:43.293Z,57.00
2019-05-16T06:32:14.151Z,56.53
2019-05-16T06:34:44.857Z,56.05
2019-05-16T06:37:15.633Z,56.76
2019-05-16T06:39:46.344Z,56.78
2019-05-16T06:42:16.984Z,56.32
2019-05-16T06:44:50.214Z,55.71
2019-05-16T06:47:22.975Z,54.98
2019-05-16T06:49:52.401Z,55.16
2019-05-16T06:52:23.305Z,55.02
2019-05-16T06:54:54.023Z,54.29
2019-05-16T06:57:24.882Z,54.63
2019-05-16T06:59:55.833Z,54.33
2019-05-16T07:02:30.815Z,53.87
2019-05-16T07:05:01.123Z,53.79
2019-05-16T07:07:32.214Z,53.77
2019-05-16T07:10:04.712Z,54.15
2019-05-16T07:12:35.727Z,54.53
2019-05-16T07:15:12.301Z,53.99
2019-05-16T07:17:40.485Z,53.48
2019-05-16T07:20:12.497Z,53.28
2019-05-16T07:22:43.313Z,53.83
2019-05-16T07:25:14.577Z,53.48
2019-05-16T07:27:45.465Z,52.58
2019-05-16T07:30:16.851Z,52.69
2019-05-16T07:32:50.055Z,51.69
2019-05-16T07:35:20.762Z,51.43
2019-05-16T07:37:51.600Z,51.22
2019-05-16T07:40:26.589Z,50.00
2019-05-16T07:42:55.100Z,50.31
2019-05-16T07:45:25.981Z,49.95
2019-05-16T07:47:56.874Z,48.04
2019-05-16T07:50:30.058Z,49.12
2019-05-16T07:53:00.201Z,49.42
2019-05-16T07:55:30.969Z,49.34
2019-05-16T07:58:01.768Z,50.13
2019-05-16T08:00:48.408Z,49.85
2019-05-16T08:03:05.052Z,49.25
2019-05-16T08:05:35.814Z,49.45
2019-05-16T08:08:06.969Z,49.56
2019-05-16T08:13:12.139Z,48.66
2019-05-16T08:15:42.848Z,48.27
2019-05-16T08:18:13.609Z,48.80
2019-05-16T08:20:44.382Z,48.59
2019-05-16T08:23:15.049Z,48.75
2019-05-16T08:25:45.964Z,47.56
2019-05-16T08:28:16.885Z,48.60
2019-05-16T08:30:52.390Z,48.20
2019-05-16T08:33:22.159Z,48.37
2019-05-16T08:35:52.998Z,47.88
2019-05-16T08:38:23.726Z,47.87
2019-05-16T08:41:10.976Z,47.84
2019-05-16T08:43:26.937Z,47.17
2019-05-16T08:46:00.812Z,47.32
2019-05-16T08:48:32.130Z,47.80
2019-05-16T08:50:05.093Z,48.08
2019-05-16T08:51:03.673Z,48.10
2019-05-16T08:53:34.364Z,47.25
2019-05-16T08:56:05.359Z,47.57
2019-05-16T08:58:35.936Z,46.94
2019-05-16T09:01:06.823Z,46.06
2019-05-16T09:03:40.610Z,46.92
2019-05-16T09:06:11.778Z,46.19
2019-05-16T09:08:42.366Z,46.54
2019-05-16T09:11:29.879Z,46.89
2019-05-16T09:13:47.765Z,46.99
2019-05-16T09:16:18.449Z,46.57
2019-05-16T09:18:51.003Z,46.68
2019-05-16T09:21:22.036Z,47.95
2019-05-16T09:23:52.800Z,47.72
2019-05-16T09:26:23.600Z,47.79
2019-05-16T09:28:57.011Z,47.72
2019-05-16T09:31:28.189Z,47.89
2019-05-16T09:33:59.053Z,47.93
2019-05-16T09:36:29.861Z,46.83
2019-05-16T09:39:00.766Z,47.84
2019-05-16T09:41:53.168Z,46.44
2019-05-16T09:44:08.580Z,46.57
2019-05-16T09:46:38.332Z,47.49
2019-05-16T09:49:19.388Z,47.38
2019-05-16T09:51:41.617Z,47.66
2019-05-16T09:54:12.165Z,46.11
2019-05-16T09:56:43.098Z,45.59
2019-05-16T09:59:13.893Z,45.86
2019-05-16T10:01:47.477Z,46.17
2019-05-16T10:04:17.532Z,46.44
2019-05-16T10:06:48.605Z,45.96
2019-05-16T10:09:19.439Z,46.82
2019-05-16T10:12:05.488Z,46.33
2019-05-16T10:14:22.771Z,45.97
2019-05-16T10:16:53.569Z,45.65
2019-05-16T10:19:24.336Z,45.55
2019-05-16T10:22:00.015Z,45.56
2019-05-16T10:24:27.813Z,46.50
2019-05-16T10:26:58.446Z,45.79
2019-05-16T10:29:29.187Z,45.19
2019-05-16T10:31:59.886Z,44.65
2019-05-16T10:34:30.648Z,46.01
2019-05-16T10:37:01.285Z,44.79
2019-05-16T10:39:32.052Z,45.46
2019-05-16T10:42:03.040Z,45.08
2019-05-16T10:44:38.005Z,45.40
2019-05-16T10:47:07.664Z,44.53
2019-05-16T10:49:41.880Z,44.56
2019-05-16T10:52:12.105Z,44.17
2019-05-16T10:54:57.234Z,44.51
2019-05-16T10:57:15.777Z,44.77
2019-05-16T11:00:01.956Z,44.90
2019-05-16T11:02:19.374Z,44.42
2019-05-16T11:04:59.986Z,43.64
2019-05-16T11:07:22.860Z,43.45
2019-05-16T11:10:01.404Z,43.69
2019-05-16T11:12:45.301Z,43.38
2019-05-16T11:14:59.848Z,44.02
2019-05-16T11:17:30.719Z,42.83
2019-05-16T11:20:01.596Z,43.08
2019-05-16T11:22:32.419Z,41.55
2019-05-16T11:25:16.411Z,42.63
2019-05-16T11:27:37.486Z,41.99
2019-05-16T11:30:08.877Z,44.13
2019-05-16T11:32:39.803Z,42.25
2019-05-16T11:35:11.036Z,43.24
2019-05-16T11:37:41.900Z,42.66
2019-05-16T11:40:13.191Z,42.78
2019-05-16T11:42:47.091Z,43.29
2019-05-16T11:45:16.760Z,43.81
2019-05-16T11:47:48.164Z,43.70
2019-05-16T11:50:19.270Z,43.26
2019-05-16T11:52:49.907Z,42.30
2019-05-16T11:55:21.073Z,42.13
2019-05-16T11:57:51.805Z,40.67
2019-05-16T12:00:23.993Z,41.16
2019-05-16T12:02:54.772Z,41.54
2019-05-16T12:05:27.056Z,42.69
2019-05-16T12:07:57.988Z,43.59
2019-05-16T12:10:28.744Z,43.41
2019-05-16T12:12:59.208Z,42.36
2019-05-16T12:15:29.715Z,43.27
2019-05-16T12:18:04.274Z,43.16
2019-05-16T12:20:32.421Z,42.47
2019-05-16T12:23:02.941Z,41.63
2019-05-16T12:25:33.412Z,41.04
2019-05-16T12:28:03.939Z,40.37
2019-05-16T12:30:34.401Z,41.00
2019-05-16T12:33:07.119Z,40.15
2019-05-16T12:35:38.119Z,40.52
2019-05-16T12:38:08.671Z,40.32
2019-05-16T12:40:39.502Z,41.77
2019-05-16T12:43:10.269Z,41.89
2019-05-16T12:45:40.969Z,39.76
2019-05-16T12:48:12.049Z,40.49
2019-05-16T12:50:42.891Z,40.33
2019-05-16T12:53:13.655Z,39.94
2019-05-16T12:55:44.378Z,40.42
2019-05-16T12:58:20.083Z,41.17
2019-05-16T13:00:54.033Z,40.97
2019-05-16T13:03:19.897Z,40.91
2019-05-16T13:05:50.893Z,42.27
2019-05-16T13:08:21.360Z,41.87
2019-05-16T13:10:52.004Z,40.68
2019-05-16T13:13:22.943Z,40.86
2019-05-16T13:15:53.663Z,41.32
2019-05-16T13:18:24.536Z,41.45
2019-05-16T13:20:57.324Z,42.41
2019-05-16T13:23:27.825Z,41.50
2019-05-16T13:25:58.712Z,41.22
2019-05-16T13:28:29.481Z,41.66
2019-05-16T13:31:01.141Z,41.58
2019-05-16T13:36:01.245Z,40.66
2019-05-16T13:38:32.109Z,40.58
2019-05-16T13:41:02.714Z,41.91
2019-05-16T13:43:33.501Z,41.78
2019-05-16T13:46:06.869Z,42.19
2019-05-16T13:48:37.835Z,41.68
2019-05-16T13:51:15.219Z,41.46
2019-05-16T13:53:41.168Z,41.63
2019-05-16T13:56:13.523Z,42.20
2019-05-16T13:58:47.018Z,41.32
2019-05-16T14:01:17.353Z,41.88
2019-05-16T14:03:49.310Z,41.32
2019-05-16T14:06:20.185Z,41.07
2019-05-16T14:08:50.893Z,41.35
2019-05-16T14:11:21.357Z,41.81
2019-05-16T14:13:51.885Z,40.93
2019-05-16T14:16:22.352Z,41.35
2019-05-16T14:18:52.898Z,40.39
2019-05-16T14:21:23.446Z,41.06
2019-05-16T14:23:54.106Z,42.12
2019-05-16T14:26:26.505Z,41.29
2019-05-16T14:28:57.849Z,41.39
2019-05-16T14:31:28.809Z,40.66
2019-05-16T14:33:59.707Z,39.84
2019-05-16T14:36:30.357Z,40.39
2019-05-16T14:39:00.993Z,40.49
2019-05-16T14:41:33.372Z,40.80
2019-05-16T14:44:04.297Z,40.94
2019-05-16T14:46:37.813Z,40.33
2019-05-16T14:49:07.827Z,40.70
2019-05-16T14:51:38.863Z,40.87
2019-05-16T14:54:09.700Z,39.54
2019-05-16T14:56:40.399Z,39.70
2019-05-16T14:59:11.289Z,40.99
2019-05-16T15:01:42.100Z,40.85
2019-05-16T15:04:12.990Z,39.32
2019-05-16T15:06:43.781Z,40.39
2019-05-16T15:09:17.091Z,39.42
2019-05-16T15:11:47.260Z,39.31
2019-05-16T15:14:17.789Z,38.94
2019-05-16T15:16:51.758Z,40.20
2019-05-16T15:19:21.792Z,40.54
2019-05-16T15:21:52.349Z,40.34
2019-05-16T15:24:22.860Z,40.87
2019-05-16T15:26:53.369Z,41.15
2019-05-16T15:29:23.902Z,42.05
2019-05-16T15:31:54.443Z,42.33
2019-05-16T15:34:29.861Z,41.55
2019-05-16T15:37:00.015Z,42.47
2019-05-16T15:39:29.480Z,42.45
2019-05-16T15:42:00.004Z,42.55
2019-05-16T15:44:30.471Z,42.03
2019-05-16T15:47:01.013Z,41.89
2019-05-16T15:49:31.472Z,42.03
2019-05-16T15:52:02.286Z,42.44
2019-05-16T15:54:33.101Z,42.26
2019-05-16T15:57:06.694Z,42.54
2019-05-16T15:59:37.583Z,43.19
2019-05-16T16:02:08.392Z,42.63
2019-05-16T16:04:38.863Z,43.49
2019-05-16T16:07:09.453Z,42.37
2019-05-16T16:09:39.965Z,42.82
2019-05-16T16:12:11.024Z,43.15
2019-05-16T16:14:41.546Z,42.93
2019-05-16T16:17:12.795Z,42.68
2019-05-16T16:19:43.295Z,42.47
2019-05-16T16:22:14.201Z,42.96
2019-05-16T16:24:47.526Z,43.72
2019-05-16T16:27:17.546Z,44.38
2019-05-16T16:29:48.301Z,44.01
2019-05-16T16:32:19.161Z,43.97
2019-05-16T16:34:49.939Z,44.10
2019-05-16T16:37:20.750Z,44.29
2019-05-16T16:39:51.612Z,44.20
2019-05-16T16:42:22.626Z,44.47
2019-05-16T16:44:53.518Z,44.70
2019-05-16T16:47:26.781Z,44.21
2019-05-16T16:49:59.254Z,43.24
2019-05-16T16:52:29.208Z,44.51
2019-05-16T16:54:59.973Z,44.81
2019-05-16T16:57:30.710Z,44.80
2019-05-16T17:00:01.690Z,47.22
2019-05-16T17:02:34.052Z,46.08
2019-05-16T17:05:10.905Z,46.81
2019-05-16T17:07:38.787Z,47.72
2019-05-16T17:10:09.871Z,47.14
2019-05-16T17:12:42.319Z,47.66
2019-05-16T17:15:14.003Z,48.09
2019-05-16T17:17:46.618Z,48.64
2019-05-16T17:20:19.694Z,50.04
2019-05-16T17:22:50.438Z,49.79
2019-05-16T17:25:21.147Z,49.65
2019-05-16T17:27:52.232Z,49.67
2019-05-16T17:30:23.456Z,49.97
2019-05-16T17:32:56.547Z,49.93
2019-05-16T17:35:26.944Z,49.63
2019-05-16T17:37:57.842Z,50.32
2019-05-16T17:40:28.750Z,49.72
2019-05-16T17:42:59.633Z,49.91
2019-05-16T17:45:31.684Z,51.28
2019-05-16T17:48:02.488Z,50.85
2019-05-16T17:50:33.440Z,50.82
2019-05-16T17:53:06.839Z,51.20
2019-05-16T17:55:37.199Z,51.23
2019-05-16T17:58:08.973Z,50.47
2019-05-16T18:00:39.876Z,50.80
2019-05-16T18:03:10.792Z,50.54
2019-05-16T18:05:41.727Z,51.08
2019-05-16T18:08:12.668Z,51.11
2019-05-16T18:10:43.408Z,53.68
2019-05-16T18:13:14.464Z,54.61
2019-05-16T18:15:47.139Z,54.57
2019-05-16T18:18:18.140Z,53.80
2019-05-16T18:20:57.840Z,54.34
2019-05-16T18:23:21.379Z,54.12
2019-05-16T18:25:52.196Z,54.34
2019-05-16T18:28:22.864Z,53.69
2019-05-16T18:30:53.700Z,54.33
2019-05-16T18:33:24.650Z,54.16
2019-05-16T18:35:57.825Z,56.11
2019-05-16T18:38:28.421Z,56.73
2019-05-16T18:40:59.166Z,56.22
2019-05-16T18:43:30.050Z,56.78
2019-05-16T18:46:01.525Z,56.44
2019-05-16T18:48:32.344Z,57.23
2019-05-16T18:51:03.345Z,57.16
2019-05-16T18:53:34.264Z,57.29
2019-05-16T18:56:07.526Z,57.76
2019-05-16T18:58:37.551Z,58.18
2019-05-16T19:01:08.311Z,57.88
2019-05-16T19:03:39.076Z,57.79
2019-05-16T19:06:09.948Z,57.58
2019-05-16T19:08:41.077Z,58.02
2019-05-16T19:11:11.861Z,58.38
2019-05-16T19:13:42.708Z,58.09
2019-05-16T19:16:13.497Z,59.02
2019-05-16T19:18:44.278Z,58.76
2019-05-16T19:21:16.856Z,59.45
2019-05-16T19:23:48.189Z,60.38
2019-05-16T19:26:19.189Z,61.31
2019-05-16T19:28:49.958Z,59.68
2019-05-16T19:31:20.805Z,59.09
2019-05-16T19:33:51.744Z,58.92
2019-05-16T19:36:22.771Z,60.94
2019-05-16T19:38:53.758Z,61.19
2019-05-16T19:41:24.708Z,61.61
2019-05-16T19:43:57.168Z,60.15
2019-05-16T19:46:28.321Z,62.05
2019-05-16T19:48:59.150Z,62.78
2019-05-16T19:51:30.053Z,61.33
2019-05-16T19:54:00.877Z,62.76
2019-05-16T19:56:31.689Z,61.83
2019-05-16T19:59:02.463Z,61.99
2019-05-16T20:01:33.298Z,62.58
2019-05-16T20:04:04.549Z,63.74
2019-05-16T20:06:36.922Z,63.00
2019-05-16T20:09:09.194Z,63.11
2019-05-16T20:11:40.131Z,62.78
2019-05-16T20:14:11.073Z,63.37
2019-05-16T20:16:42.384Z,64.06
2019-05-16T20:19:13.320Z,63.13
2019-05-16T20:21:44.081Z,63.67
2019-05-16T20:24:16.719Z,62.59
2019-05-16T20:26:47.382Z,63.42
2019-05-16T20:29:18.196Z,62.62
2019-05-16T20:31:48.997Z,62.43
2019-05-16T20:34:19.910Z,62.52
2019-05-16T20:36:50.918Z,62.38
2019-05-16T20:39:21.697Z,62.29
2019-05-16T20:41:53.086Z,60.91
2019-05-16T20:44:23.902Z,60.81
2019-05-16T20:46:56.779Z,63.15
2019-05-16T20:49:27.319Z,64.07
2019-05-16T20:51:58.098Z,63.57
2019-05-16T20:54:29.006Z,63.84
2019-05-16T20:57:00.010Z,63.14
2019-05-16T20:59:30.891Z,63.03
2019-05-16T21:02:01.727Z,63.12
2019-05-16T21:04:32.571Z,62.67
2019-05-16T21:07:08.207Z,63.32
2019-05-16T21:09:36.961Z,62.20
2019-05-16T21:12:08.344Z,63.13
2019-05-16T21:14:39.184Z,62.54
2019-05-16T21:17:10.065Z,62.30
2019-05-16T21:19:41.983Z,62.84
2019-05-16T21:22:12.896Z,62.86
2019-05-16T21:24:43.700Z,63.10
2019-05-16T21:27:16.901Z,62.74
2019-05-16T21:29:47.266Z,63.15
2019-05-16T21:32:18.114Z,63.30
2019-05-16T21:34:48.810Z,63.84
2019-05-16T21:37:20.516Z,64.27
2019-05-16T21:39:51.820Z,64.05
2019-05-16T21:42:23.750Z,64.37
2019-05-16T21:44:56.882Z,64.62
2019-05-16T21:47:27.687Z,65.28
2019-05-16T21:49:58.661Z,64.99
2019-05-16T21:52:30.481Z,64.74
2019-05-16T21:55:01.504Z,64.96
2019-05-16T21:57:32.316Z,65.12
2019-05-16T22:00:03.657Z,65.24
2019-05-16T22:02:37.128Z,65.74
2019-05-16T22:05:08.437Z,65.61
2019-05-16T22:07:40.918Z,66.30
2019-05-16T22:10:12.333Z,65.99
2019-05-16T22:12:43.357Z,66.30
2019-05-16T22:15:16.701Z,67.13
2019-05-16T22:17:48.716Z,66.93
2019-05-16T22:20:19.597Z,66.56
2019-05-16T22:22:50.762Z,66.59
2019-05-16T22:25:21.958Z,66.19
2019-05-16T22:27:52.774Z,65.79
2019-05-16T22:30:23.664Z,65.55
2019-05-16T22:32:54.536Z,64.70
2019-05-16T22:35:27.288Z,63.95
2019-05-16T22:37:59.325Z,63.13
2019-05-16T22:40:33.179Z,63.39
2019-05-16T22:43:03.522Z,62.69
2019-05-16T22:45:34.182Z,63.34
2019-05-16T22:48:07.050Z,64.85
2019-05-16T22:50:37.735Z,65.01
2019-05-16T22:53:08.528Z,65.53
2019-05-16T22:55:39.456Z,65.35
2019-05-16T22:58:10.232Z,65.66
2019-05-16T23:00:41.489Z,65.42
2019-05-16T23:03:12.287Z,65.78
2019-05-16T23:05:42.966Z,65.34
2019-05-16T23:08:13.749Z,65.61
2019-05-16T23:10:44.618Z,65.75
2019-05-16T23:13:16.951Z,65.69
2019-05-16T23:15:48.083Z,65.60
2019-05-16T23:18:18.875Z,65.66
2019-05-16T23:20:49.612Z,66.15
2019-05-16T23:23:20.477Z,66.77
2019-05-16T23:25:51.288Z,66.61
2019-05-16T23:28:22.033Z,66.66
2019-05-16T23:30:52.921Z,67.97
2019-05-16T23:33:23.729Z,67.86
2019-05-16T23:35:54.521Z,67.30
2019-05-16T23:38:27.438Z,66.94
2019-05-16T23:40:57.752Z,66.87
2019-05-16T23:43:28.437Z,67.12
2019-05-16T23:45:59.347Z,67.71
2019-05-16T23:48:30.207Z,67.25
2019-05-16T23:51:01.200Z,67.15
2019-05-16T23:53:32.024Z,67.61
2019-05-16T23:56:03.857Z,67.83
2019-05-16T23:58:36.772Z,68.46
